Time;durP1;ratioP1;P1;durP2;ratioP2;P2;SDS_P1;SDS_P2;PMS_P1;PMS_P2;Temp;Humidity;BMP_temperature;BMP_pressure;BME280_temperature;BME280_humidity;BME280_pressure;Samples;Min_cycle;Max_cycle;Signal;HPM_P1;HPM_P2
2023/03/28 00:00:16;;;;;;;8.18;2.38;;;6.60;99.90;;;;;;4938732;29;20024;-89
2023/03/28 00:02:42;;;;;;;12.98;2.00;;;5.80;99.90;;;;;;4937180;29;20082;-87
2023/03/28 00:05:16;;;;;;;12.70;2.05;;;6.20;99.90;;;;;;4936033;29;20024;-88
2023/03/28 00:07:48;;;;;;;11.32;1.90;;;5.70;99.90;;;;;;4937991;29;20031;-89
2023/03/28 00:10:27;;;;;;;9.52;2.05;;;6.00;99.90;;;;;;4934798;29;20028;-88
2023/03/28 00:13:05;;;;;;;7.05;2.20;;;5.70;99.90;;;;;;4935029;29;20488;-89
2023/03/28 00:15:37;;;;;;;8.90;2.10;;;5.70;99.90;;;;;;4939421;29;20043;-89
2023/03/28 00:18:12;;;;;;;9.38;1.73;;;6.50;99.90;;;;;;4939170;29;20032;-89
2023/03/28 00:20:47;;;;;;;9.32;1.50;;;6.30;99.90;;;;;;4939188;29;20026;-88
2023/03/28 00:23:21;;;;;;;16.20;2.33;;;6.20;99.90;;;;;;4945351;29;20036;-89
2023/03/28 00:25:56;;;;;;;11.85;1.80;;;6.70;99.90;;;;;;4938807;29;20082;-88
2023/03/28 00:28:27;;;;;;;9.32;1.90;;;6.30;99.90;;;;;;4938579;29;20035;-89
2023/03/28 00:31:00;;;;;;;11.20;2.13;;;5.60;99.90;;;;;;4938705;29;20056;-89
2023/03/28 00:33:34;;;;;;;12.13;3.03;;;7.20;99.90;;;;;;4938971;29;20035;-88
2023/03/28 00:36:00;;;;;;;19.77;3.00;;;5.80;99.90;;;;;;4938538;29;20031;-88
2023/03/28 00:38:32;;;;;;;6.88;2.17;;;5.80;99.90;;;;;;4938379;29;20107;-88
2023/03/28 00:41:09;;;;;;;8.77;2.97;;;6.90;99.90;;;;;;4941585;29;20032;-88
2023/03/28 00:43:51;;;;;;;13.25;2.55;;;5.70;99.90;;;;;;4938316;29;20032;-89
2023/03/28 00:46:33;;;;;;;8.63;2.05;;;5.70;99.90;;;;;;4938390;29;20023;-90
2023/03/28 00:49:08;;;;;;;9.90;2.42;;;5.70;99.90;;;;;;4954370;23;20082;-88
2023/03/28 00:51:46;;;;;;;10.70;3.00;;;5.70;99.90;;;;;;4957540;29;20046;-89
2023/03/28 00:54:28;;;;;;;15.98;2.85;;;5.70;99.90;;;;;;4957608;29;20486;-89
2023/03/28 00:57:08;;;;;;;8.95;2.88;;;5.80;99.90;;;;;;4973728;28;20035;-89
2023/03/28 00:59:50;;;;;;;5.97;1.90;;;6.40;99.90;;;;;;4976334;28;20081;-88
2023/03/28 01:02:28;;;;;;;9.77;2.10;;;6.50;99.90;;;;;;4976620;28;20030;-88
2023/03/28 01:05:08;;;;;;;11.32;2.75;;;5.60;99.90;;;;;;4976385;28;20077;-88
2023/03/28 01:07:44;;;;;;;9.48;2.65;;;6.30;99.90;;;;;;4975978;28;20383;-88
2023/03/28 01:10:23;;;;;;;7.47;1.90;;;4.40;99.90;;;;;;4976621;28;20078;-88
2023/03/28 01:12:59;;;;;;;11.20;2.83;;;6.30;99.90;;;;;;4975650;28;20026;-89
2023/03/28 01:15:34;;;;;;;12.93;2.42;;;6.20;99.90;;;;;;4976465;28;20035;-88
2023/03/28 01:18:17;;;;;;;11.50;2.63;;;6.50;99.90;;;;;;4976212;28;20035;-88
2023/03/28 01:21:30;;;;;;;10.88;2.05;;;6.20;99.90;;;;;;4975960;28;20027;-88
2023/03/28 01:24:17;;;;;;;5.82;2.60;;;5.70;99.90;;;;;;4975970;28;20054;-89
2023/03/28 01:27:07;;;;;;;15.35;2.20;;;5.70;99.90;;;;;;4975852;28;20030;-89
2023/03/28 01:30:06;;;;;;;8.60;2.03;;;5.80;99.90;;;;;;4975759;28;20411;-88
2023/03/28 01:32:52;;;;;;;9.13;1.80;;;5.70;99.90;;;;;;4976114;28;20055;-89
2023/03/28 01:35:44;;;;;;;7.05;1.63;;;6.20;99.90;;;;;;4976708;28;20476;-89
2023/03/28 01:38:21;;;;;;;14.65;2.95;;;5.70;99.90;;;;;;4976006;28;20475;-88
2023/03/28 01:41:00;;;;;;;7.93;2.35;;;5.70;99.90;;;;;;4975403;28;20083;-89
2023/03/28 01:43:41;;;;;;;5.53;2.00;;;5.80;99.90;;;;;;4975700;28;20030;-89
2023/03/28 01:46:26;;;;;;;6.25;2.15;;;5.70;99.90;;;;;;4975779;28;20042;-88
2023/03/28 01:48:54;;;;;;;10.63;2.30;;;5.70;99.90;;;;;;4975078;28;20074;-89
2023/03/28 01:51:55;;;;;;;9.05;2.25;;;5.90;99.90;;;;;;4976008;28;20022;-89
2023/03/28 01:54:32;;;;;;;13.55;2.75;;;5.50;99.90;;;;;;4975508;28;20058;-89
2023/03/28 01:57:29;;;;;;;10.48;2.85;;;5.50;99.90;;;;;;4975539;28;20035;-89
2023/03/28 02:00:11;;;;;;;13.15;2.42;;;5.40;99.90;;;;;;4975624;28;20050;-88
2023/03/28 02:02:42;;;;;;;7.68;2.30;;;5.40;99.90;;;;;;4975233;28;20378;-88
2023/03/28 02:05:10;;;;;;;;;;;5.40;99.90;;;;;;4976028;28;20436;-88
2023/03/28 02:07:39;;;;;;;7.40;2.13;;;5.40;99.90;;;;;;4975573;28;19906;-90
2023/03/28 02:10:07;;;;;;;5.72;1.75;;;5.40;99.90;;;;;;4974831;28;20085;-89
2023/03/28 02:12:41;;;;;;;8.20;2.20;;;5.40;99.90;;;;;;4975055;28;20482;-88
2023/03/28 02:15:12;;;;;;;9.88;1.92;;;5.40;99.90;;;;;;4975474;28;20052;-89
2023/03/28 02:17:43;;;;;;;8.40;2.00;;;5.50;99.90;;;;;;4974620;28;20039;-88
2023/03/28 02:20:14;;;;;;;9.68;1.90;;;5.50;99.90;;;;;;4975280;28;20061;-88
2023/03/28 02:22:58;;;;;;;5.68;1.92;;;5.50;99.90;;;;;;4974926;28;20050;-89
2023/03/28 02:25:26;;;;;;;11.23;2.20;;;5.50;99.90;;;;;;4975392;28;20097;-89
2023/03/28 02:27:56;;;;;;;7.93;1.92;;;5.70;99.90;;;;;;4975025;28;20030;-88
2023/03/28 02:30:22;;;;;;;7.70;1.38;;;5.40;99.90;;;;;;4974872;28;20045;-89
2023/03/28 02:33:02;;;;;;;5.53;2.60;;;5.40;99.90;;;;;;4975008;28;20027;-88
2023/03/28 02:35:54;;;;;;;5.70;1.93;;;5.40;99.90;;;;;;4974842;28;20463;-88
2023/03/28 02:38:40;;;;;;;10.25;2.08;;;5.30;99.90;;;;;;4974076;28;20041;-88
2023/03/28 02:41:26;;;;;;;9.13;1.92;;;5.30;99.90;;;;;;4974648;28;20019;-88
2023/03/28 02:44:36;;;;;;;9.45;2.65;;;5.40;99.90;;;;;;4973893;28;20096;-88
2023/03/28 02:47:25;;;;;;;6.80;1.50;;;5.40;99.90;;;;;;4974642;28;20026;-89
2023/03/28 02:50:09;;;;;;;7.30;1.92;;;5.30;99.90;;;;;;4974262;28;20129;-89
2023/03/28 02:53:01;;;;;;;9.00;1.80;;;5.40;99.90;;;;;;4974091;28;20445;-88
2023/03/28 02:55:39;;;;;;;11.40;2.72;;;5.30;99.90;;;;;;4974680;28;20019;-90
2023/03/28 02:58:12;;;;;;;7.35;1.33;;;5.30;99.90;;;;;;4974001;28;20539;-88
2023/03/28 03:00:38;;;;;;;7.63;1.88;;;5.60;99.90;;;;;;4974711;28;20022;-89
2023/03/28 03:03:10;;;;;;;9.07;1.52;;;6.00;99.90;;;;;;4974855;28;20075;-90
2023/03/28 03:05:40;;;;;;;4.38;1.70;;;5.30;99.90;;;;;;4976107;28;20023;-88
2023/03/28 03:10:52;;;;;;;9.60;1.77;;;5.60;99.90;;;;;;4974493;28;20034;-90
2023/03/28 03:13:19;;;;;;;6.55;1.65;;;6.50;99.90;;;;;;4974294;28;20027;-88
2023/03/28 03:15:53;;;;;;;6.20;1.33;;;5.40;99.90;;;;;;4974303;28;20034;-89
2023/03/28 03:18:33;;;;;;;4.97;1.23;;;6.10;99.90;;;;;;4975308;28;20434;-89
2023/03/28 03:21:00;;;;;;;6.82;1.40;;;5.20;99.90;;;;;;4978254;28;20086;-89
2023/03/28 03:23:35;;;;;;;8.93;1.75;;;6.30;99.90;;;;;;4978220;28;20031;-88
2023/03/28 03:26:01;;;;;;;6.13;1.80;;;5.70;99.90;;;;;;4976640;28;20031;-89
2023/03/28 03:28:26;;;;;;;13.43;1.90;;;5.20;99.90;;;;;;4974317;28;20371;-88
2023/03/28 03:30:52;;;;;;;6.43;1.63;;;5.30;99.90;;;;;;4974600;28;20023;-89
2023/03/28 03:33:18;;;;;;;12.90;2.20;;;5.10;99.90;;;;;;4974684;28;20034;-89
2023/03/28 03:36:02;;;;;;;10.88;2.00;;;5.20;99.90;;;;;;4974406;28;20031;-90
2023/03/28 03:38:30;;;;;;;6.35;2.17;;;5.10;99.90;;;;;;4975690;28;20034;-88
2023/03/28 03:41:08;;;;;;;6.28;1.70;;;5.00;99.90;;;;;;4973873;28;20041;-88
2023/03/28 03:43:34;;;;;;;7.10;1.83;;;5.50;99.90;;;;;;4973825;28;20486;-88
2023/03/28 03:46:12;;;;;;;4.18;1.20;;;5.30;99.90;;;;;;4974559;28;20054;-89
2023/03/28 03:48:40;;;;;;;4.88;1.40;;;4.90;99.90;;;;;;4973401;28;20043;-88
2023/03/28 03:51:09;;;;;;;13.27;1.85;;;5.20;99.90;;;;;;4974778;28;20033;-89
2023/03/28 03:53:45;;;;;;;8.88;1.73;;;5.60;99.90;;;;;;4975456;28;20089;-89
2023/03/28 03:56:13;;;;;;;5.13;1.80;;;4.90;99.90;;;;;;4977817;28;20035;-88
2023/03/28 03:58:39;;;;;;;10.50;1.50;;;4.60;99.90;;;;;;4977527;28;20043;-89
2023/03/28 04:01:12;;;;;;;6.30;1.23;;;5.70;99.90;;;;;;4977615;28;20019;-88
2023/03/28 04:03:41;;;;;;;3.88;1.10;;;5.10;99.90;;;;;;4977307;28;20031;-89
2023/03/28 04:06:23;;;;;;;7.05;1.60;;;5.80;99.90;;;;;;4978350;28;20027;-89
2023/03/28 04:09:07;;;;;;;9.82;2.60;;;6.20;99.90;;;;;;4977431;28;20426;-88
2023/03/28 04:11:41;;;;;;;6.97;1.50;;;5.10;99.90;;;;;;4977635;28;20034;-88
2023/03/28 04:14:07;;;;;;;13.48;2.17;;;5.20;99.90;;;;;;4977412;28;20023;-90
2023/03/28 04:16:36;;;;;;;13.48;2.10;;;5.80;99.90;;;;;;4976915;28;20037;-88
2023/03/28 04:19:02;;;;;;;11.88;1.67;;;5.90;99.90;;;;;;4977416;28;20038;-89
2023/03/28 04:21:34;;;;;;;9.32;2.10;;;5.00;99.90;;;;;;4977519;28;20019;-88
2023/03/28 04:24:00;;;;;;;11.75;2.65;;;5.70;99.90;;;;;;4977485;28;20114;-89
2023/03/28 04:26:34;;;;;;;8.43;2.10;;;5.00;99.90;;;;;;4977187;28;20036;-89
2023/03/28 04:29:12;;;;;;;5.60;2.17;;;4.40;99.90;;;;;;4977837;28;20034;-90
2023/03/28 04:31:49;;;;;;;7.95;2.17;;;5.50;99.90;;;;;;4977176;28;20173;-90
2023/03/28 04:34:24;;;;;;;11.88;2.22;;;5.50;99.90;;;;;;4977536;28;20026;-89
2023/03/28 04:37:00;;;;;;;12.48;2.35;;;4.90;99.90;;;;;;4976838;28;20037;-88
2023/03/28 04:39:40;;;;;;;6.13;2.22;;;4.90;99.90;;;;;;4977740;28;20027;-89
2023/03/28 04:42:16;;;;;;;9.20;2.25;;;5.50;99.90;;;;;;4977280;28;20417;-88
2023/03/28 04:44:42;;;;;;;8.82;3.20;;;4.70;99.90;;;;;;4977157;28;20106;-89
2023/03/28 04:47:19;;;;;;;6.65;2.00;;;4.90;99.90;;;;;;4977010;28;20106;-89
2023/03/28 04:49:47;;;;;;;6.82;2.35;;;6.20;99.90;;;;;;4976278;28;20051;-88
2023/03/28 04:52:13;;;;;;;7.90;2.15;;;4.80;99.90;;;;;;4968422;28;20039;-89
2023/03/28 04:54:38;;;;;;;8.13;2.53;;;4.70;99.90;;;;;;4976733;28;20113;-89
2023/03/28 04:57:05;;;;;;;11.30;2.67;;;4.90;99.90;;;;;;4976375;28;20122;-88
2023/03/28 04:59:42;;;;;;;5.00;1.88;;;5.90;99.90;;;;;;4965127;28;20130;-88
2023/03/28 05:02:22;;;;;;;10.90;4.32;;;4.90;99.90;;;;;;4957170;28;20361;-89
2023/03/28 05:05:06;;;;;;;9.45;4.95;;;6.00;99.90;;;;;;4969264;28;20086;-88
2023/03/28 05:07:41;;;;;;;6.93;3.25;;;4.80;99.90;;;;;;4973919;28;20098;-89
2023/03/28 05:10:19;;;;;;;6.50;2.90;;;4.40;99.90;;;;;;4965143;28;20027;-88
2023/03/28 05:12:51;;;;;;;5.40;2.60;;;5.40;99.90;;;;;;4975597;28;20467;-87
2023/03/28 05:15:16;;;;;;;5.50;2.65;;;5.70;99.90;;;;;;4981775;28;20031;-88
2023/03/28 05:17:51;;;;;;;8.52;2.38;;;4.90;99.90;;;;;;4976239;28;20038;-87
2023/03/28 05:20:30;;;;;;;8.55;2.65;;;4.60;99.90;;;;;;4976059;28;20521;-89
2023/03/28 05:22:56;;;;;;;10.65;2.88;;;5.30;99.90;;;;;;4939010;23;20111;-89
2023/03/28 05:25:24;;;;;;;9.52;3.00;;;4.90;99.90;;;;;;4918918;29;20020;-89
2023/03/28 05:28:03;;;;;;;9.23;2.88;;;4.90;99.90;;;;;;4901941;29;20843;-90
2023/03/28 05:30:43;;;;;;;7.57;3.20;;;4.90;99.90;;;;;;4918607;29;20032;-88
2023/03/28 05:33:31;;;;;;;6.05;2.70;;;5.50;99.90;;;;;;4918476;29;20472;-89
2023/03/28 05:35:56;;;;;;;5.35;2.50;;;5.20;99.90;;;;;;4918942;29;20040;-89
2023/03/28 05:38:30;;;;;;;16.75;4.90;;;6.20;99.90;;;;;;4918394;29;20043;-88
2023/03/28 05:41:14;;;;;;;22.05;6.72;;;4.90;99.90;;;;;;4918247;29;20032;-89
2023/03/28 05:43:40;;;;;;;10.32;5.90;;;4.80;99.90;;;;;;4918308;29;20469;-88
2023/03/28 05:46:20;;;;;;;15.75;4.95;;;5.40;99.90;;;;;;4918445;29;20079;-89
2023/03/28 05:48:45;;;;;;;21.48;6.38;;;5.50;99.90;;;;;;4917982;29;20024;-89
2023/03/28 05:51:31;;;;;;;22.60;8.10;;;5.50;99.90;;;;;;4918642;29;20036;-88
2023/03/28 05:54:23;;;;;;;18.58;6.55;;;4.90;99.90;;;;;;4917924;29;20071;-87
2023/03/28 05:56:59;;;;;;;20.23;5.88;;;4.80;99.90;;;;;;4860998;29;20041;-88
2023/03/28 05:59:33;;;;;;;18.17;6.18;;;5.50;99.90;;;;;;4917935;29;20036;-88
2023/03/28 06:02:15;;;;;;;17.73;5.60;;;6.20;99.90;;;;;;4915295;29;20017;-88
2023/03/28 06:04:56;;;;;;;14.45;4.88;;;5.50;99.90;;;;;;4918331;29;20028;-89
2023/03/28 06:07:22;;;;;;;12.93;4.95;;;5.20;99.90;;;;;;4918519;29;20028;-88
2023/03/28 06:10:05;;;;;;;16.23;5.13;;;5.70;99.90;;;;;;4917158;29;20024;-88
2023/03/28 06:12:49;;;;;;;15.18;4.85;;;5.00;99.90;;;;;;4916286;29;20039;-89
2023/03/28 06:15:15;;;;;;;16.38;4.80;;;5.60;99.90;;;;;;4915427;29;20036;-88
2023/03/28 06:18:21;;;;;;;11.05;4.85;;;5.00;99.90;;;;;;4921581;23;20701;-88
2023/03/28 06:21:05;;;;;;;10.48;5.32;;;4.60;99.90;;;;;;4915977;29;20396;-89
2023/03/28 06:23:30;;;;;;;10.55;5.03;;;4.90;99.90;;;;;;4916512;29;20020;-89
2023/03/28 06:26:08;;;;;;;11.90;4.95;;;5.70;99.90;;;;;;4917138;29;20024;-89
2023/03/28 06:28:34;;;;;;;14.48;5.78;;;5.10;99.90;;;;;;4916695;29;20116;-89
2023/03/28 06:31:05;;;;;;;20.20;6.00;;;6.20;99.90;;;;;;4916590;29;20107;-89
2023/03/28 06:33:31;;;;;;;15.93;6.20;;;5.00;99.90;;;;;;4916765;29;20368;-88
2023/03/28 06:36:11;;;;;;;15.32;5.80;;;5.00;99.90;;;;;;4917576;29;20020;-89
2023/03/28 06:38:37;;;;;;;15.70;6.18;;;5.80;99.90;;;;;;4916852;29;20035;-87
2023/03/28 06:41:20;;;;;;;13.27;6.00;;;5.00;99.90;;;;;;4916121;29;20080;-89
2023/03/28 06:44:01;;;;;;;10.68;6.15;;;5.10;99.90;;;;;;4917013;29;20044;-90
2023/03/28 06:48:57;;;;;;;16.15;6.43;;;5.10;99.90;;;;;;4948406;28;20119;-86
2023/03/28 06:51:45;;;;;;;18.48;6.53;;;5.00;99.90;;;;;;4932333;23;20052;-86
2023/03/28 06:54:38;;;;;;;14.70;7.05;;;5.00;99.90;;;;;;4936459;29;20027;-89
2023/03/28 06:57:22;;;;;;;8.55;5.45;;;5.10;99.90;;;;;;4936482;29;20043;-88
2023/03/28 07:00:03;;;;;;;14.35;5.93;;;5.70;99.90;;;;;;4936622;29;20036;-91
2023/03/28 07:02:53;;;;;;;12.18;6.60;;;5.10;99.90;;;;;;4936775;29;20031;-93
2023/03/28 07:05:38;;;;;;;14.23;5.78;;;4.40;99.90;;;;;;4934741;29;20038;-92
2023/03/28 07:08:13;;;;;;;19.15;7.13;;;5.80;99.90;;;;;;4935711;29;20031;-91
2023/03/28 07:10:54;;;;;;;12.32;6.32;;;5.80;99.90;;;;;;4934516;29;20068;-91
2023/03/28 07:13:39;;;;;;;15.88;5.72;;;5.90;99.90;;;;;;4933746;29;20023;-92
2023/03/28 07:16:26;;;;;;;19.48;6.03;;;5.20;99.90;;;;;;4933905;29;20028;-91
2023/03/28 07:19:07;;;;;;;14.45;6.18;;;5.80;99.90;;;;;;4934169;29;20383;-90
2023/03/28 07:21:52;;;;;;;26.02;6.43;;;5.80;99.90;;;;;;4934821;29;20028;-91
2023/03/28 07:24:35;;;;;;;15.45;6.60;;;5.90;99.90;;;;;;4934941;29;20024;-90
2023/03/28 07:27:19;;;;;;;11.60;6.25;;;5.40;99.90;;;;;;4937020;29;20036;-91
2023/03/28 07:29:57;;;;;;;13.13;6.85;;;5.30;99.90;;;;;;4939661;29;20028;-90
2023/03/28 07:32:31;;;;;;;12.55;6.18;;;6.50;99.90;;;;;;4940176;29;20079;-91
2023/03/28 07:35:14;;;;;;;16.98;6.47;;;5.90;99.90;;;;;;4940673;29;20058;-90
2023/03/28 07:37:47;;;;;;;10.45;6.18;;;6.10;99.90;;;;;;4940212;29;20043;-91
2023/03/28 07:40:31;;;;;;;17.40;6.85;;;6.00;99.90;;;;;;4940155;29;20032;-91
2023/03/28 07:43:11;;;;;;;17.98;6.75;;;6.10;99.90;;;;;;4945163;23;20507;-90
2023/03/28 07:46:02;;;;;;;13.93;6.00;;;6.00;99.90;;;;;;4921563;29;20024;-92
2023/03/28 07:51:16;;;;;;;12.25;6.32;;;5.60;99.90;;;;;;4945020;23;20091;-91
2023/03/28 07:53:47;;;;;;;17.83;6.45;;;6.30;99.90;;;;;;4939829;29;20024;-91
2023/03/28 07:56:31;;;;;;;11.93;5.68;;;6.20;99.90;;;;;;4940461;29;20035;-92
2023/03/28 07:59:12;;;;;;;12.32;5.70;;;6.40;99.90;;;;;;4940568;29;20500;-91
2023/03/28 08:01:56;;;;;;;16.52;6.15;;;6.30;99.90;;;;;;4939556;29;20024;-92
2023/03/28 08:04:43;;;;;;;11.50;5.63;;;4.50;99.90;;;;;;4939958;29;20028;-92
2023/03/28 08:07:19;;;;;;;18.15;6.30;;;5.90;99.90;;;;;;4941554;29;20139;-92
2023/03/28 08:10:03;;;;;;;12.35;6.53;;;6.70;99.90;;;;;;4959871;28;20024;-91
2023/03/28 08:12:38;;;;;;;22.45;6.60;;;5.90;99.90;;;;;;4943838;29;20475;-92
2023/03/28 08:15:21;;;;;;;11.02;5.90;;;6.60;99.90;;;;;;4939189;29;20479;-92
2023/03/28 08:18:12;;;;;;;11.63;5.78;;;7.40;99.90;;;;;;4939585;29;20118;-91
2023/03/28 08:20:47;;;;;;;;;;;6.80;99.90;;;;;;4939865;29;20118;-91
2023/03/28 08:23:28;;;;;;;17.73;6.38;;;5.90;99.90;;;;;;4941097;29;19910;-91
2023/03/28 08:26:20;;;;;;;22.65;6.25;;;6.10;99.90;;;;;;4939150;29;20087;-90
2023/03/28 08:29:05;;;;;;;13.57;5.53;;;6.00;99.90;;;;;;4938950;29;20499;-92
2023/03/28 08:31:55;;;;;;;13.45;6.32;;;6.10;99.90;;;;;;4940036;29;20028;-92
2023/03/28 08:34:36;;;;;;;20.23;6.83;;;6.10;99.90;;;;;;4939820;29;20035;-92
2023/03/28 08:37:18;;;;;;;13.32;6.05;;;6.10;99.90;;;;;;4939213;29;20114;-91
2023/03/28 08:39:43;;;;;;;21.25;5.88;;;6.00;99.90;;;;;;4938927;29;20475;-92
2023/03/28 08:42:43;;;;;;;15.70;4.97;;;6.70;99.90;;;;;;4939268;29;20032;-91
2023/03/28 08:45:27;;;;;;;19.42;5.95;;;6.20;99.90;;;;;;4939690;29;20028;-91
2023/03/28 08:48:10;;;;;;;16.13;6.63;;;6.30;99.90;;;;;;4993107;23;20060;-91
2023/03/28 08:51:14;;;;;;;27.13;6.25;;;6.40;99.90;;;;;;4938594;29;20086;-91
2023/03/28 08:54:30;;;;;;;9.55;5.47;;;6.40;99.90;;;;;;4936241;29;20040;-92
2023/03/28 08:57:11;;;;;;;14.95;5.13;;;6.40;99.90;;;;;;4938629;29;20048;-92
2023/03/28 09:00:21;;;;;;;12.48;5.28;;;7.10;99.90;;;;;;4938574;29;20042;-93
2023/03/28 09:03:31;;;;;;;11.63;3.65;;;7.30;99.90;;;;;;4903097;29;20035;-91
2023/03/28 09:06:36;;;;;;;;;;;;;;;;;;;;;
2023/03/28 09:12:36;;;;;;;7.95;2.47;;;6.40;99.90;;;;;;4945435;29;20092;-91
2023/03/28 09:15:33;;;;;;;9.90;2.47;;;6.50;99.90;;;;;;4942866;29;20530;-92
2023/03/28 09:18:17;;;;;;;11.38;2.72;;;6.60;99.90;;;;;;4939020;29;20051;-91
2023/03/28 09:20:46;;;;;;;8.35;2.65;;;7.20;99.90;;;;;;4938948;29;20091;-91
2023/03/28 09:23:43;;;;;;;7.07;2.53;;;6.60;99.90;;;;;;4939897;29;20028;-92
2023/03/28 09:26:36;;;;;;;5.40;2.55;;;6.70;99.90;;;;;;4938565;29;20085;-92
2023/03/28 09:29:04;;;;;;;11.35;2.90;;;6.60;99.90;;;;;;4938896;29;20035;-90
2023/03/28 09:31:58;;;;;;;11.30;2.70;;;7.50;99.90;;;;;;4952031;28;20008;-91
2023/03/28 09:34:43;;;;;;;9.48;2.85;;;7.10;99.90;;;;;;4954847;29;20032;-91
2023/03/28 09:37:31;;;;;;;7.70;2.35;;;7.50;99.90;;;;;;4938493;29;20028;-92
2023/03/28 09:43:23;;;;;;;11.52;2.67;;;6.70;99.90;;;;;;4938554;29;20039;-92
2023/03/28 09:46:23;;;;;;;9.40;2.25;;;7.10;99.90;;;;;;4938060;29;20019;-92
2023/03/28 09:49:13;;;;;;;5.83;2.13;;;6.80;99.90;;;;;;4866315;29;20042;-91
2023/03/28 09:51:57;;;;;;;3.35;1.90;;;7.60;99.90;;;;;;4936875;29;20272;-91
2023/03/28 09:54:39;;;;;;;11.80;1.95;;;6.90;99.90;;;;;;4937711;29;20499;-91
2023/03/28 09:57:23;;;;;;;7.10;2.05;;;8.30;99.90;;;;;;4937847;29;20039;-92
2023/03/28 10:00:06;;;;;;;5.38;1.83;;;6.90;99.90;;;;;;4937707;29;20036;-91
2023/03/28 10:02:52;;;;;;;6.13;1.52;;;6.90;99.90;;;;;;4938203;29;20024;-92
2023/03/28 10:05:43;;;;;;;6.82;1.92;;;7.60;99.90;;;;;;4937872;29;20032;-91
2023/03/28 10:08:53;;;;;;;7.53;2.05;;;7.50;99.90;;;;;;4992874;23;20048;-93
2023/03/28 10:11:21;;;;;;;7.73;1.70;;;7.10;99.90;;;;;;4860637;29;20034;-91
2023/03/28 10:13:58;;;;;;;3.67;1.65;;;6.50;99.90;;;;;;4860902;29;20124;-90
2023/03/28 10:16:33;;;;;;;5.65;1.80;;;6.90;99.90;;;;;;4859957;29;20147;-92
2023/03/28 10:18:59;;;;;;;4.53;1.83;;;7.70;99.90;;;;;;4860491;29;20497;-92
2023/03/28 10:21:31;;;;;;;10.75;1.67;;;6.90;99.90;;;;;;4844536;29;20048;-90
2023/03/28 10:27:45;;;;;;;7.40;2.10;;;7.00;99.90;;;;;;4937426;29;20161;-92
2023/03/28 10:31:01;;;;;;;5.07;2.17;;;6.50;99.90;;;;;;4937037;29;20046;-91
2023/03/28 10:34:14;;;;;;;6.05;2.30;;;6.90;99.90;;;;;;4937400;29;20027;-92
2023/03/28 10:37:35;;;;;;;6.95;2.03;;;6.40;99.90;;;;;;4936869;29;20123;-93
2023/03/28 10:40:35;;;;;;;6.10;2.13;;;7.60;99.90;;;;;;4892212;29;20123;-91
2023/03/28 10:43:13;;;;;;;10.43;3.35;;;7.00;99.90;;;;;;4936813;29;20032;-92
2023/03/28 10:45:51;;;;;;;13.18;4.40;;;7.80;99.90;;;;;;4937563;29;20027;-93
2023/03/28 10:48:30;;;;;;;19.48;5.63;;;7.20;99.90;;;;;;4944862;23;20055;-90
2023/03/28 10:54:42;;;;;;;18.02;6.15;;;7.80;99.90;;;;;;4865437;29;20014;-92
2023/03/28 10:57:52;;;;;;;12.65;5.93;;;7.20;99.90;;;;;;4881861;29;20041;-92
2023/03/28 11:00:58;;;;;;;15.00;5.60;;;7.30;99.90;;;;;;4865557;29;20037;-92
2023/03/28 11:04:09;;;;;;;10.82;3.00;;;6.90;99.90;;;;;;4859662;29;20044;-93
2023/03/28 11:07:00;;;;;;;;;;;7.30;99.90;;;;;;4934770;29;20127;-90
2023/03/28 11:09:50;;;;;;;7.47;2.55;;;8.10;99.90;;;;;;4958921;23;20013;-93
2023/03/28 11:12:35;;;;;;;;;;;7.40;99.90;;;;;;4936724;29;20028;-90
2023/03/28 11:15:35;;;;;;;4.03;2.00;;;7.50;99.90;;;;;;4937009;29;20282;-92
2023/03/28 11:18:19;;;;;;;6.95;2.25;;;7.50;99.90;;;;;;4936917;29;20391;-89
2023/03/28 11:21:19;;;;;;;5.35;2.25;;;8.00;99.90;;;;;;4937780;29;20031;-90
2023/03/28 11:24:08;;;;;;;6.90;1.85;;;7.50;99.90;;;;;;4936795;29;20036;-91
2023/03/28 11:27:11;;;;;;;6.85;2.08;;;7.50;99.90;;;;;;4981684;23;20055;-90
2023/03/28 11:29:52;;;;;;;7.93;1.88;;;7.60;99.90;;;;;;4936017;29;20117;-91
2023/03/28 11:32:37;;;;;;;3.65;1.98;;;8.20;99.90;;;;;;4935904;29;20106;-92
2023/03/28 11:35:53;;;;;;;6.22;2.15;;;7.50;99.90;;;;;;4937720;29;20087;-91
2023/03/28 11:39:04;;;;;;;12.68;2.60;;;7.60;99.90;;;;;;4903154;29;20044;-91
2023/03/28 11:41:48;;;;;;;8.70;2.28;;;7.50;99.90;;;;;;4936648;29;20048;-92
2023/03/28 11:44:50;;;;;;;6.18;2.40;;;8.30;99.90;;;;;;4937009;29;20023;-92
2023/03/28 11:47:31;;;;;;;12.27;2.60;;;9.00;99.90;;;;;;4935485;29;20075;-92
2023/03/28 11:50:22;;;;;;;6.47;2.17;;;7.60;99.90;;;;;;4990970;23;20222;-92
2023/03/28 11:53:06;;;;;;;5.22;2.05;;;7.70;99.90;;;;;;4936020;29;20020;-91
2023/03/28 11:55:51;;;;;;;6.93;2.10;;;8.50;99.90;;;;;;4919081;29;20042;-91
2023/03/28 11:58:25;;;;;;;4.90;2.05;;;7.90;99.90;;;;;;4936292;29;20031;-92
2023/03/28 12:01:41;;;;;;;6.55;2.58;;;8.40;99.90;;;;;;4935900;29;20495;-92
2023/03/28 12:04:32;;;;;;;8.40;2.35;;;7.90;99.90;;;;;;4859323;29;20045;-91
2023/03/28 12:07:19;;;;;;;;;;;8.60;99.90;;;;;;4867560;29;20134;-90
2023/03/28 12:10:13;;;;;;;3.30;2.05;;;7.30;99.90;;;;;;4936429;29;20362;-92
2023/03/28 12:13:21;;;;;;;6.93;2.10;;;8.00;99.90;;;;;;4936221;29;20019;-91
2023/03/28 12:16:11;;;;;;;6.63;2.47;;;7.90;99.90;;;;;;4938676;29;20032;-91
2023/03/28 12:18:57;;;;;;;6.13;2.63;;;7.90;99.90;;;;;;4939739;29;20119;-91
2023/03/28 12:21:58;;;;;;;;;;;;;;;;;;;;;
2023/03/28 12:24:41;;;;;;;12.43;2.55;;;8.50;99.90;;;;;;4890532;29;20043;-93
2023/03/28 12:27:59;;;;;;;13.23;2.60;;;8.00;99.90;;;;;;4940143;29;20361;-93
2023/03/28 12:34:02;;;;;;;8.15;2.40;;;8.00;99.90;;;;;;4952319;23;20059;-92
2023/03/28 12:36:56;;;;;;;5.30;2.35;;;7.40;99.90;;;;;;4939070;29;20038;-91
2023/03/28 12:43:11;;;;;;;4.35;1.35;;;8.00;99.90;;;;;;4881010;29;20079;-91
2023/03/28 12:45:59;;;;;;;9.65;2.00;;;7.70;99.90;;;;;;4875915;29;20057;-92
2023/03/28 12:49:15;;;;;;;7.47;2.25;;;8.00;99.90;;;;;;4862784;29;20108;-92
2023/03/28 12:52:01;;;;;;;7.95;1.70;;;8.00;99.90;;;;;;4835823;29;20041;-92
2023/03/28 12:55:45;;;;;;;12.40;3.33;;;8.70;99.90;;;;;;4938852;29;20020;-92
2023/03/28 12:58:33;;;;;;;7.63;2.22;;;8.10;99.90;;;;;;4938517;29;20047;-92
2023/03/28 13:01:08;;;;;;;4.45;2.08;;;8.40;99.90;;;;;;4939910;29;20031;-92
2023/03/28 13:07:13;;;;;;;6.00;2.08;;;8.20;99.90;;;;;;4962970;23;20047;-92
2023/03/28 13:09:56;;;;;;;6.85;2.17;;;8.20;99.90;;;;;;4957225;29;20396;-92
2023/03/28 13:12:48;;;;;;;4.65;2.20;;;7.80;99.90;;;;;;4958297;28;20042;-91
2023/03/28 13:15:13;;;;;;;11.07;3.08;;;8.30;99.90;;;;;;5003115;23;20147;-90
2023/03/28 13:18:30;;;;;;;8.68;2.15;;;9.90;99.90;;;;;;4938044;29;20091;-90
2023/03/28 13:21:51;;;;;;;7.50;2.35;;;8.50;99.90;;;;;;4939426;29;20075;-91
2023/03/28 13:24:44;;;;;;;6.90;1.90;;;8.60;99.90;;;;;;4939235;29;20032;-92
2023/03/28 13:27:39;;;;;;;4.82;2.10;;;8.70;99.90;;;;;;4937669;29;20042;-91
2023/03/28 13:30:26;;;;;;;4.50;1.77;;;8.80;99.90;;;;;;4938641;29;20039;-92
2023/03/28 13:39:50;;;;;;;6.13;2.40;;;8.90;99.90;;;;;;4903097;29;20055;-92
2023/03/28 13:42:31;;;;;;;7.63;2.78;;;9.40;99.90;;;;;;4919394;29;20472;-91
2023/03/28 13:46:04;;;;;;;16.60;2.45;;;9.50;99.90;;;;;;4919627;29;20054;-91
2023/03/28 13:49:16;;;;;;;10.05;2.83;;;8.80;99.90;;;;;;4911355;29;20111;-91
2023/03/28 13:52:04;;;;;;;5.30;2.40;;;8.70;99.90;;;;;;4860795;29;20117;-91
2023/03/28 13:54:45;;;;;;;9.95;2.92;;;8.30;99.90;;;;;;4861177;29;20070;-92
2023/03/28 13:57:32;;;;;;;6.22;2.72;;;9.80;99.90;;;;;;4860919;29;20041;-92
2023/03/28 14:00:01;;;;;;;6.85;2.80;;;8.60;99.90;;;;;;4860676;29;20427;-91
2023/03/28 14:02:47;;;;;;;9.07;2.90;;;8.10;99.90;;;;;;4860953;29;20064;-90
2023/03/28 14:05:41;;;;;;;9.50;2.85;;;10.10;99.90;;;;;;4870710;29;20035;-90
2023/03/28 14:08:20;;;;;;;5.10;2.50;;;9.20;99.90;;;;;;4903185;29;20036;-91
2023/03/28 14:11:01;;;;;;;6.80;2.97;;;9.40;99.90;;;;;;4918923;29;20028;-91
2023/03/28 14:13:47;;;;;;;7.28;3.08;;;10.00;99.90;;;;;;4919734;29;20028;-91
2023/03/28 14:19:02;;;;;;;9.98;2.85;;;9.20;99.90;;;;;;4918841;29;20551;-90
2023/03/28 14:21:46;;;;;;;10.55;2.72;;;9.70;99.90;;;;;;4937340;23;20318;-91
2023/03/28 14:24:38;;;;;;;13.23;2.97;;;9.80;99.90;;;;;;4937439;29;20035;-93
2023/03/28 14:30:36;;;;;;;5.22;2.63;;;9.40;99.90;;;;;;4897161;29;20024;-91
2023/03/28 14:33:23;;;;;;;7.55;4.03;;;9.60;99.90;;;;;;4898000;29;20488;-91
2023/03/28 14:36:16;;;;;;;5.78;3.35;;;9.40;99.90;;;;;;4927568;29;20047;-93
2023/03/28 14:39:09;;;;;;;10.73;3.58;;;8.40;99.90;;;;;;4936438;29;20032;-93
2023/03/28 14:41:56;;;;;;;6.68;2.75;;;8.90;99.90;;;;;;4867233;29;20120;-92
2023/03/28 14:44:22;;;;;;;6.95;3.17;;;9.40;99.90;;;;;;4938047;29;20027;-92
2023/03/28 14:47:43;;;;;;;9.93;3.40;;;9.70;99.90;;;;;;4937268;29;20038;-91
2023/03/28 14:50:24;;;;;;;;;;;;;;;;;;;;;
2023/03/28 14:53:05;;;;;;;15.98;3.20;;;8.90;99.90;;;;;;4903156;29;20519;-92
2023/03/28 14:55:59;;;;;;;11.52;3.15;;;9.00;99.90;;;;;;4939515;29;20475;-92
2023/03/28 14:58:46;;;;;;;5.85;2.72;;;9.00;99.90;;;;;;4902698;29;20040;-91
2023/03/28 15:01:30;;;;;;;6.65;3.28;;;9.70;99.90;;;;;;4937181;29;20020;-92